sensor_id;sensor_type;location;lat;lon;timestamp;temperature;humidity
79760;DHT22;70512;42.122;24.732;2023-11-21T00:00:18;11.20;55.90
79760;DHT22;70512;42.122;24.732;2023-11-21T00:02:46;11.30;55.80
79760;DHT22;70512;42.122;24.732;2023-11-21T00:05:14;11.30;56.70
79760;DHT22;70512;42.122;24.732;2023-11-21T00:07:43;11.30;57.40
79760;DHT22;70512;42.122;24.732;2023-11-21T00:10:11;11.20;57.90
79760;DHT22;70512;42.122;24.732;2023-11-21T00:12:40;11.10;58.30
79760;DHT22;70512;42.122;24.732;2023-11-21T00:15:09;11.00;58.40
79760;DHT22;70512;42.122;24.732;2023-11-21T00:17:40;10.90;58.60
79760;DHT22;70512;42.122;24.732;2023-11-21T00:20:09;10.80;58.50
79760;DHT22;70512;42.122;24.732;2023-11-21T00:22:38;10.90;58.20
79760;DHT22;70512;42.122;24.732;2023-11-21T00:25:07;11.00;57.80
79760;DHT22;70512;42.122;24.732;2023-11-21T00:27:36;11.10;57.60
79760;DHT22;70512;42.122;24.732;2023-11-21T00:30:04;11.10;57.40
79760;DHT22;70512;42.122;24.732;2023-11-21T00:32:33;11.20;57.40
79760;DHT22;70512;42.122;24.732;2023-11-21T00:35:00;11.10;57.40
79760;DHT22;70512;42.122;24.732;2023-11-21T00:37:28;11.10;57.50
79760;DHT22;70512;42.122;24.732;2023-11-21T00:39:57;11.10;58.30
79760;DHT22;70512;42.122;24.732;2023-11-21T00:42:25;11.00;57.90
79760;DHT22;70512;42.122;24.732;2023-11-21T00:44:54;10.90;58.80
79760;DHT22;70512;42.122;24.732;2023-11-21T00:47:26;10.80;59.40
79760;DHT22;70512;42.122;24.732;2023-11-21T00:49:53;10.70;59.50
79760;DHT22;70512;42.122;24.732;2023-11-21T00:52:24;10.60;60.00
79760;DHT22;70512;42.122;24.732;2023-11-21T00:54:52;10.50;60.30
79760;DHT22;70512;42.122;24.732;2023-11-21T00:57:20;10.40;61.70
79760;DHT22;70512;42.122;24.732;2023-11-21T00:59:47;10.40;61.20
79760;DHT22;70512;42.122;24.732;2023-11-21T01:02:15;10.30;61.70
79760;DHT22;70512;42.122;24.732;2023-11-21T01:04:42;10.30;62.10
79760;DHT22;70512;42.122;24.732;2023-11-21T01:07:10;10.20;62.40
79760;DHT22;70512;42.122;24.732;2023-11-21T01:09:38;10.10;62.70
79760;DHT22;70512;42.122;24.732;2023-11-21T01:12:05;10.00;63.10
79760;DHT22;70512;42.122;24.732;2023-11-21T01:14:33;9.90;63.80
79760;DHT22;70512;42.122;24.732;2023-11-21T01:17:02;9.80;64.20
79760;DHT22;70512;42.122;24.732;2023-11-21T01:19:31;9.70;64.50
79760;DHT22;70512;42.122;24.732;2023-11-21T01:21:58;9.70;64.90
79760;DHT22;70512;42.122;24.732;2023-11-21T01:24:26;9.60;65.20
79760;DHT22;70512;42.122;24.732;2023-11-21T01:26:54;9.50;65.80
79760;DHT22;70512;42.122;24.732;2023-11-21T01:29:21;9.40;66.20
79760;DHT22;70512;42.122;24.732;2023-11-21T01:31:49;9.30;66.80
79760;DHT22;70512;42.122;24.732;2023-11-21T01:34:16;9.30;67.10
79760;DHT22;70512;42.122;24.732;2023-11-21T01:36:46;9.20;67.50
79760;DHT22;70512;42.122;24.732;2023-11-21T01:39:14;9.20;67.90
79760;DHT22;70512;42.122;24.732;2023-11-21T01:41:43;9.10;68.00
79760;DHT22;70512;42.122;24.732;2023-11-21T01:44:10;9.10;68.30
79760;DHT22;70512;42.122;24.732;2023-11-21T01:46:39;9.00;68.60
79760;DHT22;70512;42.122;24.732;2023-11-21T01:49:09;9.00;68.80
79760;DHT22;70512;42.122;24.732;2023-11-21T01:51:40;8.90;69.80
79760;DHT22;70512;42.122;24.732;2023-11-21T01:54:09;8.80;69.40
79760;DHT22;70512;42.122;24.732;2023-11-21T01:56:38;8.80;69.80
79760;DHT22;70512;42.122;24.732;2023-11-21T01:59:06;8.80;69.90
79760;DHT22;70512;42.122;24.732;2023-11-21T02:01:34;8.80;70.00
79760;DHT22;70512;42.122;24.732;2023-11-21T02:04:02;8.70;70.00
79760;DHT22;70512;42.122;24.732;2023-11-21T02:06:30;8.70;70.10
79760;DHT22;70512;42.122;24.732;2023-11-21T02:08:58;8.70;70.40
79760;DHT22;70512;42.122;24.732;2023-11-21T02:11:30;8.70;70.70
79760;DHT22;70512;42.122;24.732;2023-11-21T02:13:59;8.60;71.00
79760;DHT22;70512;42.122;24.732;2023-11-21T02:16:27;8.40;73.40
79760;DHT22;70512;42.122;24.732;2023-11-21T02:18:57;8.20;73.30
79760;DHT22;70512;42.122;24.732;2023-11-21T02:21:25;8.10;74.10
79760;DHT22;70512;42.122;24.732;2023-11-21T02:23:53;8.00;74.80
79760;DHT22;70512;42.122;24.732;2023-11-21T02:26:21;7.90;75.40
79760;DHT22;70512;42.122;24.732;2023-11-21T02:28:49;7.90;74.80
79760;DHT22;70512;42.122;24.732;2023-11-21T02:31:18;8.00;74.20
79760;DHT22;70512;42.122;24.732;2023-11-21T02:33:46;8.10;73.70
79760;DHT22;70512;42.122;24.732;2023-11-21T02:36:13;8.20;73.50
79760;DHT22;70512;42.122;24.732;2023-11-21T02:38:41;8.10;73.30
79760;DHT22;70512;42.122;24.732;2023-11-21T02:41:09;8.10;73.40
79760;DHT22;70512;42.122;24.732;2023-11-21T02:43:36;8.10;73.50
79760;DHT22;70512;42.122;24.732;2023-11-21T02:46:05;8.10;73.50
79760;DHT22;70512;42.122;24.732;2023-11-21T02:48:33;8.10;73.60
79760;DHT22;70512;42.122;24.732;2023-11-21T02:51:01;8.10;73.60
79760;DHT22;70512;42.122;24.732;2023-11-21T02:53:29;8.10;73.50
79760;DHT22;70512;42.122;24.732;2023-11-21T02:55:56;8.10;73.60
79760;DHT22;70512;42.122;24.732;2023-11-21T02:58:24;8.00;74.20
79760;DHT22;70512;42.122;24.732;2023-11-21T03:00:52;7.70;75.20
79760;DHT22;70512;42.122;24.732;2023-11-21T03:03:20;7.50;76.10
79760;DHT22;70512;42.122;24.732;2023-11-21T03:05:51;7.40;76.90
79760;DHT22;70512;42.122;24.732;2023-11-21T03:08:19;7.20;77.40
79760;DHT22;70512;42.122;24.732;2023-11-21T03:10:47;7.10;78.10
79760;DHT22;70512;42.122;24.732;2023-11-21T03:13:15;7.00;78.50
79760;DHT22;70512;42.122;24.732;2023-11-21T03:15:42;7.10;77.90
79760;DHT22;70512;42.122;24.732;2023-11-21T03:18:10;7.20;77.40
79760;DHT22;70512;42.122;24.732;2023-11-21T03:20:38;7.30;77.20
79760;DHT22;70512;42.122;24.732;2023-11-21T03:23:07;7.40;76.80
79760;DHT22;70512;42.122;24.732;2023-11-21T03:25:35;7.50;76.60
79760;DHT22;70512;42.122;24.732;2023-11-21T03:28:05;7.50;76.60
79760;DHT22;70512;42.122;24.732;2023-11-21T03:30:32;7.50;76.90
79760;DHT22;70512;42.122;24.732;2023-11-21T03:33:00;7.40;77.60
79760;DHT22;70512;42.122;24.732;2023-11-21T03:35:27;7.30;78.20
79760;DHT22;70512;42.122;24.732;2023-11-21T03:37:55;7.10;78.50
79760;DHT22;70512;42.122;24.732;2023-11-21T03:40:23;7.10;79.20
79760;DHT22;70512;42.122;24.732;2023-11-21T03:42:50;7.00;79.40
79760;DHT22;70512;42.122;24.732;2023-11-21T03:45:18;7.00;79.40
79760;DHT22;70512;42.122;24.732;2023-11-21T03:47:46;7.10;79.00
79760;DHT22;70512;42.122;24.732;2023-11-21T03:50:13;7.20;78.70
79760;DHT22;70512;42.122;24.732;2023-11-21T03:52:41;7.30;78.40
79760;DHT22;70512;42.122;24.732;2023-11-21T03:55:09;7.30;78.20
79760;DHT22;70512;42.122;24.732;2023-11-21T03:57:37;7.40;77.40
79760;DHT22;70512;42.122;24.732;2023-11-21T04:00:07;7.40;77.90
79760;DHT22;70512;42.122;24.732;2023-11-21T04:02:40;7.40;77.90
79760;DHT22;70512;42.122;24.732;2023-11-21T04:05:07;7.20;78.80
79760;DHT22;70512;42.122;24.732;2023-11-21T04:07:36;7.10;79.40
79760;DHT22;70512;42.122;24.732;2023-11-21T04:10:06;7.10;79.40
79760;DHT22;70512;42.122;24.732;2023-11-21T04:12:36;7.00;79.80
79760;DHT22;70512;42.122;24.732;2023-11-21T04:15:04;6.90;80.10
79760;DHT22;70512;42.122;24.732;2023-11-21T04:17:32;6.90;80.30
79760;DHT22;70512;42.122;24.732;2023-11-21T04:19:59;6.90;80.40
79760;DHT22;70512;42.122;24.732;2023-11-21T04:22:27;6.90;80.40
79760;DHT22;70512;42.122;24.732;2023-11-21T04:24:54;6.90;80.50
79760;DHT22;70512;42.122;24.732;2023-11-21T04:27:22;6.80;80.70
79760;DHT22;70512;42.122;24.732;2023-11-21T04:29:51;6.70;81.10
79760;DHT22;70512;42.122;24.732;2023-11-21T04:32:19;6.60;81.50
79760;DHT22;70512;42.122;24.732;2023-11-21T04:34:46;6.60;81.70
79760;DHT22;70512;42.122;24.732;2023-11-21T04:37:14;6.60;81.70
79760;DHT22;70512;42.122;24.732;2023-11-21T04:39:42;6.70;81.30
79760;DHT22;70512;42.122;24.732;2023-11-21T04:42:09;6.90;80.50
79760;DHT22;70512;42.122;24.732;2023-11-21T04:44:37;7.00;79.60
79760;DHT22;70512;42.122;24.732;2023-11-21T04:47:06;7.10;79.20
79760;DHT22;70512;42.122;24.732;2023-11-21T04:49:34;7.30;78.80
79760;DHT22;70512;42.122;24.732;2023-11-21T04:52:01;7.30;78.60
79760;DHT22;70512;42.122;24.732;2023-11-21T04:54:36;7.40;78.30
79760;DHT22;70512;42.122;24.732;2023-11-21T04:57:00;7.40;78.00
79760;DHT22;70512;42.122;24.732;2023-11-21T04:59:28;7.30;78.60
79760;DHT22;70512;42.122;24.732;2023-11-21T05:01:55;7.20;79.20
79760;DHT22;70512;42.122;24.732;2023-11-21T05:04:23;7.10;79.50
79760;DHT22;70512;42.122;24.732;2023-11-21T05:06:55;7.20;78.80
79760;DHT22;70512;42.122;24.732;2023-11-21T05:09:19;7.30;78.40
79760;DHT22;70512;42.122;24.732;2023-11-21T05:11:48;7.50;78.00
79760;DHT22;70512;42.122;24.732;2023-11-21T05:14:18;7.50;78.10
79760;DHT22;70512;42.122;24.732;2023-11-21T05:16:46;7.30;78.50
79760;DHT22;70512;42.122;24.732;2023-11-21T05:19:14;7.20;79.40
79760;DHT22;70512;42.122;24.732;2023-11-21T05:21:41;7.10;79.30
79760;DHT22;70512;42.122;24.732;2023-11-21T05:24:09;7.10;79.30
79760;DHT22;70512;42.122;24.732;2023-11-21T05:26:36;7.00;80.30
79760;DHT22;70512;42.122;24.732;2023-11-21T05:29:05;6.80;81.60
79760;DHT22;70512;42.122;24.732;2023-11-21T05:31:34;6.90;80.90
79760;DHT22;70512;42.122;24.732;2023-11-21T05:34:03;6.90;81.00
79760;DHT22;70512;42.122;24.732;2023-11-21T05:36:31;6.80;81.70
79760;DHT22;70512;42.122;24.732;2023-11-21T05:39:00;6.70;82.40
79760;DHT22;70512;42.122;24.732;2023-11-21T05:41:29;6.60;83.10
79760;DHT22;70512;42.122;24.732;2023-11-21T05:43:57;6.60;83.20
79760;DHT22;70512;42.122;24.732;2023-11-21T05:46:24;6.60;82.90
79760;DHT22;70512;42.122;24.732;2023-11-21T05:48:52;6.70;82.20
79760;DHT22;70512;42.122;24.732;2023-11-21T05:51:20;6.90;81.40
79760;DHT22;70512;42.122;24.732;2023-11-21T05:53:47;7.00;80.30
79760;DHT22;70512;42.122;24.732;2023-11-21T05:56:15;7.10;79.80
79760;DHT22;70512;42.122;24.732;2023-11-21T05:58:43;7.30;79.40
79760;DHT22;70512;42.122;24.732;2023-11-21T06:01:11;7.40;79.00
79760;DHT22;70512;42.122;24.732;2023-11-21T06:03:39;7.40;78.50
79760;DHT22;70512;42.122;24.732;2023-11-21T06:06:08;7.50;78.20
79760;DHT22;70512;42.122;24.732;2023-11-21T06:08:35;7.50;77.30
79760;DHT22;70512;42.122;24.732;2023-11-21T06:11:03;7.60;77.20
79760;DHT22;70512;42.122;24.732;2023-11-21T06:13:31;7.60;77.30
79760;DHT22;70512;42.122;24.732;2023-11-21T06:15:58;7.30;78.40
79760;DHT22;70512;42.122;24.732;2023-11-21T06:18:27;7.20;79.00
79760;DHT22;70512;42.122;24.732;2023-11-21T06:20:54;7.10;79.60
79760;DHT22;70512;42.122;24.732;2023-11-21T06:23:22;7.00;79.90
79760;DHT22;70512;42.122;24.732;2023-11-21T06:25:49;7.00;80.10
79760;DHT22;70512;42.122;24.732;2023-11-21T06:28:17;7.10;79.60
79760;DHT22;70512;42.122;24.732;2023-11-21T06:30:45;7.30;79.20
79760;DHT22;70512;42.122;24.732;2023-11-21T06:33:12;7.50;78.60
79760;DHT22;70512;42.122;24.732;2023-11-21T06:35:42;7.60;77.20
79760;DHT22;70512;42.122;24.732;2023-11-21T06:38:11;7.80;75.90
79760;DHT22;70512;42.122;24.732;2023-11-21T06:40:39;7.90;75.10
79760;DHT22;70512;42.122;24.732;2023-11-21T06:43:07;8.00;74.70
79760;DHT22;70512;42.122;24.732;2023-11-21T06:45:35;8.00;74.30
79760;DHT22;70512;42.122;24.732;2023-11-21T06:48:02;8.10;74.40
79760;DHT22;70512;42.122;24.732;2023-11-21T06:50:30;8.20;73.60
79760;DHT22;70512;42.122;24.732;2023-11-21T06:52:58;8.10;73.50
79760;DHT22;70512;42.122;24.732;2023-11-21T06:55:25;8.10;73.70
79760;DHT22;70512;42.122;24.732;2023-11-21T06:57:53;8.00;73.90
79760;DHT22;70512;42.122;24.732;2023-11-21T07:00:21;8.20;73.80
79760;DHT22;70512;42.122;24.732;2023-11-21T07:02:49;8.30;73.50
79760;DHT22;70512;42.122;24.732;2023-11-21T07:05:18;8.30;73.10
79760;DHT22;70512;42.122;24.732;2023-11-21T07:07:48;8.50;72.20
79760;DHT22;70512;42.122;24.732;2023-11-21T07:10:16;8.50;71.70
79760;DHT22;70512;42.122;24.732;2023-11-21T07:12:44;8.50;71.30
79760;DHT22;70512;42.122;24.732;2023-11-21T07:15:13;8.50;71.40
79760;DHT22;70512;42.122;24.732;2023-11-21T07:17:41;8.50;71.50
79760;DHT22;70512;42.122;24.732;2023-11-21T07:20:11;8.30;72.20
79760;DHT22;70512;42.122;24.732;2023-11-21T07:22:39;8.20;73.30
79760;DHT22;70512;42.122;24.732;2023-11-21T07:25:07;8.30;72.30
79760;DHT22;70512;42.122;24.732;2023-11-21T07:27:36;8.30;72.40
79760;DHT22;70512;42.122;24.732;2023-11-21T07:30:04;8.30;72.20
79760;DHT22;70512;42.122;24.732;2023-11-21T07:32:34;8.40;71.80
79760;DHT22;70512;42.122;24.732;2023-11-21T07:35:01;8.60;71.20
79760;DHT22;70512;42.122;24.732;2023-11-21T07:37:29;8.50;71.60
79760;DHT22;70512;42.122;24.732;2023-11-21T07:39:57;8.30;72.60
79760;DHT22;70512;42.122;24.732;2023-11-21T07:42:24;8.50;72.40
79760;DHT22;70512;42.122;24.732;2023-11-21T07:44:54;8.70;71.30
79760;DHT22;70512;42.122;24.732;2023-11-21T07:47:22;9.00;70.30
79760;DHT22;70512;42.122;24.732;2023-11-21T07:49:52;9.10;69.70
79760;DHT22;70512;42.122;24.732;2023-11-21T07:52:19;9.30;68.90
79760;DHT22;70512;42.122;24.732;2023-11-21T07:54:47;9.40;69.10
79760;DHT22;70512;42.122;24.732;2023-11-21T07:57:15;9.50;68.00
79760;DHT22;70512;42.122;24.732;2023-11-21T07:59:42;9.60;67.50
79760;DHT22;70512;42.122;24.732;2023-11-21T08:02:11;9.70;67.30
79760;DHT22;70512;42.122;24.732;2023-11-21T08:04:40;9.90;66.70
79760;DHT22;70512;42.122;24.732;2023-11-21T08:07:12;10.00;66.10
79760;DHT22;70512;42.122;24.732;2023-11-21T08:09:41;10.10;65.40
79760;DHT22;70512;42.122;24.732;2023-11-21T08:12:12;10.20;65.00
79760;DHT22;70512;42.122;24.732;2023-11-21T08:14:39;10.30;64.40
79760;DHT22;70512;42.122;24.732;2023-11-21T08:17:07;10.30;64.10
79760;DHT22;70512;42.122;24.732;2023-11-21T08:19:36;10.30;64.00
79760;DHT22;70512;42.122;24.732;2023-11-21T08:22:04;10.40;63.80
79760;DHT22;70512;42.122;24.732;2023-11-21T08:24:33;10.60;63.50
79760;DHT22;70512;42.122;24.732;2023-11-21T08:27:01;10.70;63.00
79760;DHT22;70512;42.122;24.732;2023-11-21T08:29:30;10.80;62.80
79760;DHT22;70512;42.122;24.732;2023-11-21T08:31:58;11.00;62.20
79760;DHT22;70512;42.122;24.732;2023-11-21T08:34:26;11.10;61.60
79760;DHT22;70512;42.122;24.732;2023-11-21T08:36:55;11.20;61.30
79760;DHT22;70512;42.122;24.732;2023-11-21T08:39:23;11.40;60.90
79760;DHT22;70512;42.122;24.732;2023-11-21T08:41:51;11.50;60.20
79760;DHT22;70512;42.122;24.732;2023-11-21T08:44:19;11.50;60.00
79760;DHT22;70512;42.122;24.732;2023-11-21T08:46:46;11.60;60.30
79760;DHT22;70512;42.122;24.732;2023-11-21T08:49:14;11.70;59.70
79760;DHT22;70512;42.122;24.732;2023-11-21T08:51:42;11.90;59.30
79760;DHT22;70512;42.122;24.732;2023-11-21T08:54:11;12.10;58.60
79760;DHT22;70512;42.122;24.732;2023-11-21T08:56:40;12.20;58.20
79760;DHT22;70512;42.122;24.732;2023-11-21T08:59:09;12.30;57.70
79760;DHT22;70512;42.122;24.732;2023-11-21T09:01:37;12.40;57.30
79760;DHT22;70512;42.122;24.732;2023-11-21T09:04:05;12.40;56.90
79760;DHT22;70512;42.122;24.732;2023-11-21T09:06:33;12.50;57.20
79760;DHT22;70512;42.122;24.732;2023-11-21T09:09:01;12.60;56.90
79760;DHT22;70512;42.122;24.732;2023-11-21T09:11:31;12.70;56.40
79760;DHT22;70512;42.122;24.732;2023-11-21T09:14:00;12.80;56.10
79760;DHT22;70512;42.122;24.732;2023-11-21T09:16:29;12.90;56.20
79760;DHT22;70512;42.122;24.732;2023-11-21T09:18:59;13.10;56.10
79760;DHT22;70512;42.122;24.732;2023-11-21T09:21:26;13.30;55.60
79760;DHT22;70512;42.122;24.732;2023-11-21T09:23:54;13.50;54.90
79760;DHT22;70512;42.122;24.732;2023-11-21T09:26:21;13.40;54.80
79760;DHT22;70512;42.122;24.732;2023-11-21T09:28:49;13.60;54.40
79760;DHT22;70512;42.122;24.732;2023-11-21T09:31:18;13.80;53.60
79760;DHT22;70512;42.122;24.732;2023-11-21T09:33:47;13.90;53.00
79760;DHT22;70512;42.122;24.732;2023-11-21T09:36:15;14.00;52.60
79760;DHT22;70512;42.122;24.732;2023-11-21T09:38:43;14.30;52.30
79760;DHT22;70512;42.122;24.732;2023-11-21T09:41:15;14.60;51.40
79760;DHT22;70512;42.122;24.732;2023-11-21T09:43:45;14.70;51.00
79760;DHT22;70512;42.122;24.732;2023-11-21T09:46:14;14.90;50.40
79760;DHT22;70512;42.122;24.732;2023-11-21T09:48:44;14.80;49.90
79760;DHT22;70512;42.122;24.732;2023-11-21T09:51:12;14.70;50.60
79760;DHT22;70512;42.122;24.732;2023-11-21T09:53:41;15.00;50.30
79760;DHT22;70512;42.122;24.732;2023-11-21T09:56:10;15.20;49.10
79760;DHT22;70512;42.122;24.732;2023-11-21T09:58:38;15.40;48.70
79760;DHT22;70512;42.122;24.732;2023-11-21T10:01:06;15.70;48.00
79760;DHT22;70512;42.122;24.732;2023-11-21T10:03:36;15.90;47.40
79760;DHT22;70512;42.122;24.732;2023-11-21T10:06:06;16.20;47.00
79760;DHT22;70512;42.122;24.732;2023-11-21T10:08:34;16.40;46.40
79760;DHT22;70512;42.122;24.732;2023-11-21T10:11:03;16.60;45.60
79760;DHT22;70512;42.122;24.732;2023-11-21T10:13:33;16.50;45.50
79760;DHT22;70512;42.122;24.732;2023-11-21T10:16:04;16.50;46.00
79760;DHT22;70512;42.122;24.732;2023-11-21T10:18:52;16.70;46.00
79760;DHT22;70512;42.122;24.732;2023-11-21T10:21:22;17.20;44.70
79760;DHT22;70512;42.122;24.732;2023-11-21T10:23:52;17.70;43.50
79760;DHT22;70512;42.122;24.732;2023-11-21T10:26:21;18.10;42.60
79760;DHT22;70512;42.122;24.732;2023-11-21T10:28:59;18.20;41.20
79760;DHT22;70512;42.122;24.732;2023-11-21T10:31:27;17.90;41.60
79760;DHT22;70512;42.122;24.732;2023-11-21T10:34:15;18.00;41.90
79760;DHT22;70512;42.122;24.732;2023-11-21T10:36:43;18.10;41.80
79760;DHT22;70512;42.122;24.732;2023-11-21T10:39:18;18.70;39.80
79760;DHT22;70512;42.122;24.732;2023-11-21T10:41:47;19.20;38.40
79760;DHT22;70512;42.122;24.732;2023-11-21T10:44:16;19.50;38.00
79760;DHT22;70512;42.122;24.732;2023-11-21T10:46:54;20.10;36.80
79760;DHT22;70512;42.122;24.732;2023-11-21T10:49:19;20.30;35.90
79760;DHT22;70512;42.122;24.732;2023-11-21T10:51:47;19.90;36.30
79760;DHT22;70512;42.122;24.732;2023-11-21T10:54:19;19.50;37.10
79760;DHT22;70512;42.122;24.732;2023-11-21T10:56:53;19.70;37.00
79760;DHT22;70512;42.122;24.732;2023-11-21T10:59:20;19.80;36.50
79760;DHT22;70512;42.122;24.732;2023-11-21T11:01:49;19.60;37.00
79760;DHT22;70512;42.122;24.732;2023-11-21T11:04:19;19.20;37.80
79760;DHT22;70512;42.122;24.732;2023-11-21T11:06:54;18.30;39.60
79760;DHT22;70512;42.122;24.732;2023-11-21T11:09:23;18.20;40.00
79760;DHT22;70512;42.122;24.732;2023-11-21T11:11:51;18.10;40.30
79760;DHT22;70512;42.122;24.732;2023-11-21T11:14:20;18.30;40.00
79760;DHT22;70512;42.122;24.732;2023-11-21T11:16:52;18.40;40.00
79760;DHT22;70512;42.122;24.732;2023-11-21T11:19:20;18.40;39.80
79760;DHT22;70512;42.122;24.732;2023-11-21T11:27:30;18.00;40.20
79760;DHT22;70512;42.122;24.732;2023-11-21T11:30:14;17.90;40.60
79760;DHT22;70512;42.122;24.732;2023-11-21T11:35:33;17.40;42.00
79760;DHT22;70512;42.122;24.732;2023-11-21T11:37:57;17.10;43.00
79760;DHT22;70512;42.122;24.732;2023-11-21T11:40:47;17.00;43.40
79760;DHT22;70512;42.122;24.732;2023-11-21T11:43:24;17.00;43.70
79760;DHT22;70512;42.122;24.732;2023-11-21T11:45:45;16.60;44.80
79760;DHT22;70512;42.122;24.732;2023-11-21T11:48:16;16.20;45.70
79760;DHT22;70512;42.122;24.732;2023-11-21T11:51:04;16.10;46.10
79760;DHT22;70512;42.122;24.732;2023-11-21T11:53:41;16.10;46.40
79760;DHT22;70512;42.122;24.732;2023-11-21T11:58:49;16.30;46.00
79760;DHT22;70512;42.122;24.732;2023-11-21T12:01:22;16.10;46.50
79760;DHT22;70512;42.122;24.732;2023-11-21T12:04:24;16.00;46.20
79760;DHT22;70512;42.122;24.732;2023-11-21T12:06:35;15.70;46.50
79760;DHT22;70512;42.122;24.732;2023-11-21T12:09:03;15.60;47.10
79760;DHT22;70512;42.122;24.732;2023-11-21T12:11:34;15.70;47.10
79760;DHT22;70512;42.122;24.732;2023-11-21T12:14:03;15.80;46.50
79760;DHT22;70512;42.122;24.732;2023-11-21T12:16:35;15.80;46.50
79760;DHT22;70512;42.122;24.732;2023-11-21T12:19:03;15.80;47.10
79760;DHT22;70512;42.122;24.732;2023-11-21T12:21:30;15.70;46.80
79760;DHT22;70512;42.122;24.732;2023-11-21T12:24:00;15.90;46.40
79760;DHT22;70512;42.122;24.732;2023-11-21T12:26:28;16.10;46.30
79760;DHT22;70512;42.122;24.732;2023-11-21T12:28:55;16.30;46.10
79760;DHT22;70512;42.122;24.732;2023-11-21T12:31:24;16.40;45.60
79760;DHT22;70512;42.122;24.732;2023-11-21T12:33:52;16.50;45.50
79760;DHT22;70512;42.122;24.732;2023-11-21T12:36:21;16.40;45.30
79760;DHT22;70512;42.122;24.732;2023-11-21T12:38:49;16.40;45.50
79760;DHT22;70512;42.122;24.732;2023-11-21T12:41:16;16.50;45.50
79760;DHT22;70512;42.122;24.732;2023-11-21T12:43:44;16.70;45.00
79760;DHT22;70512;42.122;24.732;2023-11-21T12:46:15;16.90;44.80
79760;DHT22;70512;42.122;24.732;2023-11-21T12:48:44;17.10;44.50
79760;DHT22;70512;42.122;24.732;2023-11-21T12:51:15;17.20;43.90
79760;DHT22;70512;42.122;24.732;2023-11-21T12:53:45;17.30;43.50
79760;DHT22;70512;42.122;24.732;2023-11-21T12:56:19;17.20;43.50
79760;DHT22;70512;42.122;24.732;2023-11-21T12:58:46;17.10;43.90
79760;DHT22;70512;42.122;24.732;2023-11-21T13:01:14;16.80;44.80
79760;DHT22;70512;42.122;24.732;2023-11-21T13:03:46;16.60;45.50
79760;DHT22;70512;42.122;24.732;2023-11-21T13:06:15;16.70;45.80
79760;DHT22;70512;42.122;24.732;2023-11-21T13:08:45;16.80;45.20
79760;DHT22;70512;42.122;24.732;2023-11-21T13:11:13;16.80;45.10
79760;DHT22;70512;42.122;24.732;2023-11-21T13:13:41;17.00;44.70
79760;DHT22;70512;42.122;24.732;2023-11-21T13:16:10;17.00;44.10
79760;DHT22;70512;42.122;24.732;2023-11-21T13:18:37;17.00;44.10
79760;DHT22;70512;42.122;24.732;2023-11-21T13:21:08;17.00;44.10
79760;DHT22;70512;42.122;24.732;2023-11-21T13:23:38;17.00;43.90
79760;DHT22;70512;42.122;24.732;2023-11-21T13:26:07;17.00;44.40
79760;DHT22;70512;42.122;24.732;2023-11-21T13:28:37;16.90;44.70
79760;DHT22;70512;42.122;24.732;2023-11-21T13:31:05;16.90;44.60
79760;DHT22;70512;42.122;24.732;2023-11-21T13:33:35;17.00;44.60
79760;DHT22;70512;42.122;24.732;2023-11-21T13:36:07;17.00;44.60
79760;DHT22;70512;42.122;24.732;2023-11-21T13:38:36;16.90;44.60
79760;DHT22;70512;42.122;24.732;2023-11-21T13:41:12;16.80;44.60
79760;DHT22;70512;42.122;24.732;2023-11-21T13:43:41;16.80;45.00
79760;DHT22;70512;42.122;24.732;2023-11-21T13:46:10;16.70;45.10
79760;DHT22;70512;42.122;24.732;2023-11-21T13:48:39;16.70;45.60
79760;DHT22;70512;42.122;24.732;2023-11-21T13:51:17;16.70;45.00
79760;DHT22;70512;42.122;24.732;2023-11-21T13:53:47;16.70;45.20
79760;DHT22;70512;42.122;24.732;2023-11-21T13:56:17;16.70;44.90
79760;DHT22;70512;42.122;24.732;2023-11-21T13:58:46;16.60;45.20
79760;DHT22;70512;42.122;24.732;2023-11-21T14:01:22;16.50;45.20
79760;DHT22;70512;42.122;24.732;2023-11-21T14:04:03;16.40;45.30
79760;DHT22;70512;42.122;24.732;2023-11-21T14:06:46;16.30;45.40
79760;DHT22;70512;42.122;24.732;2023-11-21T14:09:22;16.20;46.20
79760;DHT22;70512;42.122;24.732;2023-11-21T14:11:53;16.10;46.00
79760;DHT22;70512;42.122;24.732;2023-11-21T14:14:24;16.00;47.40
79760;DHT22;70512;42.122;24.732;2023-11-21T14:16:52;15.80;47.40
79760;DHT22;70512;42.122;24.732;2023-11-21T14:19:21;15.80;47.80
79760;DHT22;70512;42.122;24.732;2023-11-21T14:21:53;15.70;47.80
79760;DHT22;70512;42.122;24.732;2023-11-21T14:24:22;15.60;47.40
79760;DHT22;70512;42.122;24.732;2023-11-21T14:26:51;15.50;47.70
79760;DHT22;70512;42.122;24.732;2023-11-21T14:29:20;15.40;48.20
79760;DHT22;70512;42.122;24.732;2023-11-21T14:31:49;15.20;48.40
79760;DHT22;70512;42.122;24.732;2023-11-21T14:34:19;15.20;49.40
79760;DHT22;70512;42.122;24.732;2023-11-21T14:36:48;15.10;49.20
79760;DHT22;70512;42.122;24.732;2023-11-21T14:39:15;15.00;49.60
79760;DHT22;70512;42.122;24.732;2023-11-21T14:41:45;14.80;49.90
79760;DHT22;70512;42.122;24.732;2023-11-21T14:44:15;14.80;50.10
79760;DHT22;70512;42.122;24.732;2023-11-21T14:46:42;14.60;50.30
79760;DHT22;70512;42.122;24.732;2023-11-21T14:49:14;14.50;51.10
79760;DHT22;70512;42.122;24.732;2023-11-21T14:51:43;14.40;50.80
79760;DHT22;70512;42.122;24.732;2023-11-21T14:54:33;14.30;51.50
79760;DHT22;70512;42.122;24.732;2023-11-21T14:57:13;14.30;52.00
79760;DHT22;70512;42.122;24.732;2023-11-21T14:59:44;14.00;52.40
79760;DHT22;70512;42.122;24.732;2023-11-21T15:02:09;13.90;52.90
79760;DHT22;70512;42.122;24.732;2023-11-21T15:04:41;13.80;53.50
79760;DHT22;70512;42.122;24.732;2023-11-21T15:07:09;13.60;53.90
79760;DHT22;70512;42.122;24.732;2023-11-21T15:09:39;13.50;54.40
79760;DHT22;70512;42.122;24.732;2023-11-21T15:12:12;13.50;54.70
79760;DHT22;70512;42.122;24.732;2023-11-21T15:14:43;13.40;54.10
79760;DHT22;70512;42.122;24.732;2023-11-21T15:17:13;13.30;54.30
79760;DHT22;70512;42.122;24.732;2023-11-21T15:19:42;13.20;55.40
79760;DHT22;70512;42.122;24.732;2023-11-21T15:22:10;13.10;55.50
79760;DHT22;70512;42.122;24.732;2023-11-21T15:24:40;13.10;55.80
79760;DHT22;70512;42.122;24.732;2023-11-21T15:27:09;13.00;56.60
79760;DHT22;70512;42.122;24.732;2023-11-21T15:29:39;12.90;57.20
79760;DHT22;70512;42.122;24.732;2023-11-21T15:32:11;12.80;57.50
79760;DHT22;70512;42.122;24.732;2023-11-21T15:34:39;12.80;58.30
79760;DHT22;70512;42.122;24.732;2023-11-21T15:37:08;12.70;58.30
79760;DHT22;70512;42.122;24.732;2023-11-21T15:39:38;12.70;58.20
79760;DHT22;70512;42.122;24.732;2023-11-21T15:42:06;12.70;58.20
79760;DHT22;70512;42.122;24.732;2023-11-21T15:44:36;12.80;58.20